createdAt,value
2023-04-17T00:04:56.371Z,81.25
2023-04-17T00:10:02.302Z,81.29
2023-04-17T00:15:10.480Z,81.29
2023-04-17T00:20:16.231Z,81.29
2023-04-17T00:25:22.104Z,81.25
2023-04-17T00:30:27.757Z,81.29
2023-04-17T00:35:33.603Z,81.24
2023-04-17T00:40:39.326Z,81.34
2023-04-17T00:45:46.330Z,81.38
2023-04-17T00:50:53.377Z,81.39
2023-04-17T00:56:00.825Z,81.39
2023-04-17T01:01:07.914Z,81.42
2023-04-17T01:06:14.263Z,81.50
2023-04-17T01:11:20.042Z,81.50
2023-04-17T01:16:25.903Z,81.50
2023-04-17T01:21:31.870Z,81.52
2023-04-17T01:26:38.888Z,81.56
2023-04-17T01:31:44.588Z,81.57
2023-04-17T01:36:51.081Z,81.60
2023-04-17T01:41:56.830Z,81.64
2023-04-17T01:47:02.438Z,81.67
2023-04-17T01:52:08.720Z,81.80
2023-04-17T01:57:14.522Z,81.75
2023-04-17T02:02:20.542Z,81.72
2023-04-17T02:07:26.704Z,81.87
2023-04-17T02:12:32.348Z,81.88
2023-04-17T02:17:38.055Z,81.93
2023-04-17T02:22:43.943Z,82.02
2023-04-17T02:27:49.807Z,82.01
2023-04-17T02:32:56.845Z,82.11
2023-04-17T02:38:02.519Z,82.04
2023-04-17T02:43:08.390Z,82.10
2023-04-17T02:48:14.252Z,82.22
2023-04-17T02:53:20.177Z,82.21
2023-04-17T02:58:25.951Z,82.15
2023-04-17T03:03:34.438Z,82.16
2023-04-17T03:08:40.300Z,82.19
2023-04-17T03:13:46.437Z,82.14
2023-04-17T03:18:52.260Z,82.19
2023-04-17T03:23:58.078Z,82.21
2023-04-17T03:29:03.705Z,82.21
2023-04-17T03:34:10.177Z,82.19
2023-04-17T03:39:16.313Z,82.19
2023-04-17T03:44:22.251Z,82.27
2023-04-17T03:49:27.919Z,82.32
2023-04-17T03:54:35.157Z,82.31
2023-04-17T03:59:41.017Z,82.38
2023-04-17T04:04:47.723Z,82.39
2023-04-17T04:09:53.461Z,82.39
2023-04-17T04:14:59.112Z,82.44
2023-04-17T04:20:07.919Z,82.62
2023-04-17T04:25:13.889Z,82.54
2023-04-17T04:30:21.180Z,82.57
2023-04-17T04:35:30.248Z,82.59
2023-04-17T04:40:37.989Z,82.57
2023-04-17T04:45:44.152Z,82.47
2023-04-17T04:50:49.982Z,82.39
2023-04-17T04:55:55.746Z,82.13
2023-04-17T05:01:01.456Z,82.01
2023-04-17T05:06:10.763Z,81.96
2023-04-17T05:11:16.633Z,81.79
2023-04-17T05:16:22.359Z,81.76
2023-04-17T05:21:30.958Z,81.47
2023-04-17T05:26:37.272Z,81.29
2023-04-17T05:31:43.535Z,81.13
2023-04-17T05:36:49.554Z,80.88
2023-04-17T05:41:55.757Z,80.62
2023-04-17T05:47:01.621Z,80.38
2023-04-17T05:52:07.864Z,80.14
2023-04-17T05:57:13.646Z,79.82
2023-04-17T06:02:19.999Z,79.54
2023-04-17T06:07:26.115Z,79.42
2023-04-17T06:12:32.144Z,79.17
2023-04-17T06:17:38.841Z,78.94
2023-04-17T06:22:46.399Z,78.59
2023-04-17T06:27:51.983Z,78.10
2023-04-17T06:32:57.846Z,77.74
2023-04-17T06:38:03.775Z,77.40
2023-04-17T06:43:09.583Z,77.08
2023-04-17T06:48:15.586Z,76.87
2023-04-17T06:53:21.739Z,76.55
2023-04-17T06:58:27.680Z,76.06
2023-04-17T07:03:34.145Z,75.69
2023-04-17T07:08:40.566Z,75.17
2023-04-17T07:13:47.614Z,75.17
2023-04-17T07:18:54.236Z,74.69
2023-04-17T07:24:00.247Z,74.84
2023-04-17T07:29:05.950Z,74.46
2023-04-17T07:34:11.873Z,74.75
2023-04-17T07:39:17.512Z,74.21
2023-04-17T07:44:23.386Z,74.29
2023-04-17T07:49:29.073Z,73.54
2023-04-17T07:54:34.816Z,73.35
2023-04-17T07:59:40.652Z,73.47
2023-04-17T08:04:46.896Z,73.10
2023-04-17T08:09:53.208Z,72.85
2023-04-17T08:14:58.901Z,71.51
2023-04-17T08:20:11.712Z,70.93
2023-04-17T08:25:17.570Z,71.18
2023-04-17T08:30:24.767Z,71.07
2023-04-17T08:35:30.613Z,70.81
2023-04-17T08:40:37.267Z,70.28
2023-04-17T08:45:53.119Z,69.82
2023-04-17T08:50:59.086Z,69.71
2023-04-17T08:56:09.230Z,69.57
2023-04-17T09:01:17.911Z,69.25
2023-04-17T09:06:23.703Z,69.35
2023-04-17T09:11:30.068Z,69.05
2023-04-17T09:16:37.222Z,68.43
2023-04-17T09:21:43.199Z,68.77
2023-04-17T09:26:49.010Z,68.55
2023-04-17T09:31:54.759Z,68.33
2023-04-17T09:37:00.654Z,68.31
2023-04-17T09:42:08.810Z,68.07
2023-04-17T09:47:17.197Z,68.59
2023-04-17T09:52:24.924Z,68.75
2023-04-17T09:57:31.424Z,68.19
2023-04-17T10:02:40.012Z,68.45
2023-04-17T10:07:46.958Z,68.13
2023-04-17T10:12:58.361Z,68.05
2023-04-17T10:18:25.478Z,67.88
2023-04-17T10:23:36.475Z,67.88
2023-04-17T10:28:51.615Z,67.79
2023-04-17T10:33:57.641Z,67.72
2023-04-17T10:39:16.220Z,67.77
2023-04-17T10:44:24.853Z,68.11
2023-04-17T10:49:48.664Z,67.51
2023-04-17T10:55:08.347Z,67.75
2023-04-17T11:00:18.564Z,67.64
2023-04-17T11:05:25.782Z,67.91
2023-04-17T11:10:37.269Z,68.39
2023-04-17T11:15:42.933Z,68.44
2023-04-17T11:20:49.929Z,68.79
2023-04-17T11:25:56.182Z,69.32
2023-04-17T11:31:02.732Z,69.56
2023-04-17T11:36:10.996Z,69.75
2023-04-17T11:41:16.926Z,69.82
2023-04-17T11:46:23.462Z,69.67
2023-04-17T11:51:31.378Z,69.99
2023-04-17T11:56:37.048Z,70.11
2023-04-17T12:01:54.179Z,70.21
2023-04-17T12:07:00.124Z,70.38
2023-04-17T12:12:08.742Z,70.44
2023-04-17T12:17:14.809Z,70.49
2023-04-17T12:22:20.781Z,70.53
2023-04-17T12:27:26.357Z,70.14
2023-04-17T12:32:32.060Z,70.06
2023-04-17T12:37:38.027Z,70.12
2023-04-17T12:42:49.154Z,70.09
2023-04-17T12:47:56.839Z,70.07
2023-04-17T12:53:02.685Z,69.99
2023-04-17T12:58:09.718Z,70.08
2023-04-17T13:03:15.593Z,70.15
2023-04-17T13:08:21.569Z,70.17
2023-04-17T13:13:27.180Z,70.11
2023-04-17T13:18:33.102Z,69.90
2023-04-17T13:23:39.287Z,69.88
2023-04-17T13:28:45.477Z,69.75
2023-04-17T13:33:51.540Z,69.53
2023-04-17T13:38:57.349Z,69.43
2023-04-17T13:44:02.963Z,69.31
2023-04-17T13:49:08.725Z,69.32
2023-04-17T13:54:14.866Z,69.00
2023-04-17T13:59:20.607Z,69.06
2023-04-17T14:04:26.578Z,68.84
2023-04-17T14:09:32.627Z,68.96
2023-04-17T14:14:38.629Z,69.07
2023-04-17T14:19:44.702Z,68.88
2023-04-17T14:24:50.643Z,68.87
2023-04-17T14:29:56.342Z,68.75
2023-04-17T14:35:01.926Z,68.72
2023-04-17T14:40:10.780Z,68.89
2023-04-17T14:45:16.822Z,68.92
2023-04-17T14:50:22.613Z,68.92
2023-04-17T14:55:29.026Z,69.04
2023-04-17T15:00:34.933Z,69.19
2023-04-17T15:05:40.555Z,69.20
2023-04-17T15:10:51.194Z,69.04
2023-04-17T15:15:57.416Z,69.11
2023-04-17T15:21:03.420Z,69.18
2023-04-17T15:26:09.605Z,69.37
2023-04-17T15:31:15.489Z,69.29
2023-04-17T15:36:21.197Z,69.22
2023-04-17T15:41:27.391Z,69.35
2023-04-17T15:46:33.059Z,69.57
2023-04-17T15:51:40.933Z,69.64
2023-04-17T15:56:47.168Z,69.74
2023-04-17T16:01:53.529Z,69.88
2023-04-17T16:06:59.391Z,69.92
2023-04-17T16:12:08.256Z,70.00
2023-04-17T16:17:14.039Z,70.24
2023-04-17T16:22:20.495Z,70.21
2023-04-17T16:27:27.138Z,70.28
2023-04-17T16:32:33.141Z,70.32
2023-04-17T16:37:38.884Z,70.42
2023-04-17T16:42:45.229Z,70.43
2023-04-17T16:47:51.018Z,70.43
2023-04-17T16:52:56.724Z,70.40
2023-04-17T16:58:03.997Z,70.46
2023-04-17T17:03:09.701Z,70.47
2023-04-17T17:08:16.427Z,70.71
2023-04-17T17:13:23.289Z,70.81
2023-04-17T17:18:28.990Z,70.81
2023-04-17T17:23:34.742Z,70.79
2023-04-17T17:28:40.587Z,70.93
2023-04-17T17:33:49.813Z,71.05
2023-04-17T17:38:56.300Z,71.21
2023-04-17T17:44:02.453Z,71.56
2023-04-17T17:49:07.990Z,71.74
2023-04-17T17:54:14.108Z,72.13
2023-04-17T17:59:21.075Z,72.18
2023-04-17T18:04:27.291Z,72.42
2023-04-17T18:09:33.255Z,72.81
2023-04-17T18:14:39.257Z,72.89
2023-04-17T18:19:45.772Z,73.32
2023-04-17T18:24:54.195Z,73.70
2023-04-17T18:30:00.790Z,74.00
2023-04-17T18:35:08.685Z,74.19
2023-04-17T18:40:15.689Z,74.53
2023-04-17T18:45:21.762Z,74.86
2023-04-17T18:50:28.392Z,75.07
2023-04-17T18:55:36.852Z,75.48
2023-04-17T19:00:43.059Z,75.82
2023-04-17T19:05:49.059Z,76.06
2023-04-17T19:10:55.189Z,76.25
2023-04-17T19:16:00.919Z,76.75
2023-04-17T19:21:06.835Z,76.79
2023-04-17T19:26:14.775Z,76.61
2023-04-17T19:31:20.431Z,76.64
2023-04-17T19:36:27.122Z,76.73
2023-04-17T19:41:32.881Z,76.96
2023-04-17T19:46:38.585Z,77.18
2023-04-17T19:51:44.364Z,77.26
2023-04-17T19:56:50.359Z,77.18
2023-04-17T20:01:56.067Z,77.32
2023-04-17T20:07:03.678Z,77.35
2023-04-17T20:12:10.080Z,77.46
2023-04-17T20:17:16.002Z,77.50
2023-04-17T20:22:21.645Z,77.66
2023-04-17T20:27:27.221Z,77.56
2023-04-17T20:32:32.947Z,77.63
2023-04-17T20:37:40.230Z,77.59
2023-04-17T20:42:47.018Z,77.64
2023-04-17T20:47:56.987Z,77.61
2023-04-17T20:53:02.942Z,77.75
2023-04-17T20:58:08.412Z,77.92
2023-04-17T21:03:14.088Z,77.82
2023-04-17T21:08:19.863Z,77.81
2023-04-17T21:13:25.597Z,77.76
2023-04-17T21:18:31.258Z,77.74
2023-04-17T21:23:37.053Z,77.73
2023-04-17T21:28:43.268Z,77.78
2023-04-17T21:33:49.200Z,77.79
2023-04-17T21:38:54.975Z,77.78
2023-04-17T21:44:02.126Z,77.78
2023-04-17T21:49:08.827Z,77.85
2023-04-17T21:54:14.903Z,77.94
2023-04-17T21:59:20.726Z,78.00
2023-04-17T22:04:27.749Z,77.99
2023-04-17T22:09:33.836Z,78.07
2023-04-17T22:14:40.722Z,78.11
2023-04-17T22:20:18.263Z,78.13
2023-04-17T22:26:35.596Z,78.18
2023-04-17T22:32:53.278Z,78.26
2023-04-17T22:39:10.656Z,78.32
2023-04-17T22:45:27.920Z,78.40
2023-04-17T22:51:45.020Z,78.57
2023-04-17T22:58:02.302Z,78.69
2023-04-17T23:04:19.812Z,78.81
2023-04-17T23:09:26.245Z,78.96
2023-04-17T23:14:31.896Z,79.04
2023-04-17T23:19:37.589Z,79.16
2023-04-17T23:24:43.515Z,79.36
2023-04-17T23:29:49.284Z,79.47
2023-04-17T23:34:54.871Z,79.61
2023-04-17T23:40:00.914Z,79.75
2023-04-17T23:45:09.606Z,79.82
2023-04-17T23:50:15.616Z,80.00
2023-04-17T23:55:22.109Z,80.20
